Austin, Utah
Current Conditions -  °F | °C
As of 12:52 AM on Friday 24 Oct 2014 (Local Time) from KMLF Reporting Station
Clear Clear  
Wind Chill: 53°   Ceiling: Unl
Heat Index: 53°   Visibility: 10mi
Dew Point: 30°   Wind: 12mph
Humidity: 41%   Direction: 220°SW
Pressure: 30.18"   Gusts: NA
Location:  38.6125°N, 112.081°W
Report Text: KMLF 240652Z AUTO 22010KT 10SM CLR 12/M01 A3018 RMK AO2 SLP173 T01171011 402390017 TSNO
Loading
Personal Weather Stations






























Interactive Weather Map
Tropical Storm Tracking
New forecast layout! Learn more

10-Day Weather Forecast

Advertisements
Track Severe Weather on mobile